createdAt,value
2022-07-25T03:18:30.625Z,17.18
2022-07-25T03:21:40.171Z,17.16
2022-07-25T03:24:49.731Z,17.18
2022-07-25T03:28:01.289Z,17.16
2022-07-25T03:31:10.828Z,17.14
2022-07-25T03:34:24.100Z,17.11
2022-07-25T03:37:33.876Z,17.03
2022-07-25T03:40:43.466Z,16.95
2022-07-25T03:43:56.041Z,16.89
2022-07-25T03:47:05.622Z,16.87
2022-07-25T03:50:21.095Z,16.83
2022-07-25T03:53:30.605Z,16.73
2022-07-25T03:56:48.321Z,16.77
2022-07-25T04:00:00.140Z,16.80
2022-07-25T04:03:09.701Z,16.82
2022-07-25T04:06:23.325Z,16.82
2022-07-25T04:09:33.624Z,16.77
2022-07-25T04:12:43.343Z,16.71
2022-07-25T04:15:52.800Z,16.72
2022-07-25T04:19:05.390Z,16.71
2022-07-25T04:22:19.372Z,16.75
2022-07-25T04:25:28.861Z,16.79
2022-07-25T04:28:38.653Z,16.84
2022-07-25T04:31:48.220Z,16.92
2022-07-25T04:34:57.842Z,16.87
2022-07-25T04:38:12.281Z,16.84
2022-07-25T04:41:22.130Z,16.82
2022-07-25T04:44:36.594Z,16.85
2022-07-25T04:47:46.341Z,16.87
2022-07-25T04:50:55.896Z,16.90
2022-07-25T04:54:17.497Z,16.98
2022-07-25T04:57:27.014Z,17.02
2022-07-25T05:04:14.272Z,17.13
2022-07-25T05:07:23.755Z,17.23
2022-07-25T05:10:38.517Z,17.32
2022-07-25T05:13:48.017Z,17.42
2022-07-25T05:16:57.565Z,17.46
2022-07-25T05:20:10.579Z,17.56
2022-07-25T05:23:20.121Z,17.67
2022-07-25T05:26:30.942Z,17.78
2022-07-25T05:29:43.620Z,17.90
2022-07-25T05:32:55.532Z,18.01
2022-07-25T05:36:06.028Z,18.13
2022-07-25T05:39:18.293Z,18.21
2022-07-25T05:42:29.099Z,18.34
2022-07-25T05:45:38.606Z,18.54
2022-07-25T05:48:48.198Z,18.77
2022-07-25T05:51:59.901Z,18.89
2022-07-25T05:55:13.471Z,19.03
2022-07-25T05:58:29.366Z,19.19
2022-07-25T06:01:42.598Z,19.40
2022-07-25T06:04:52.120Z,19.57
2022-07-25T06:08:01.701Z,19.71
2022-07-25T06:11:13.465Z,19.85
2022-07-25T06:14:24.225Z,20.04
2022-07-25T06:17:34.628Z,20.20
2022-07-25T06:20:47.212Z,20.39
2022-07-25T06:23:56.722Z,20.59
2022-07-25T06:27:07.703Z,20.81
2022-07-25T06:30:20.569Z,21.04
2022-07-25T06:33:30.339Z,21.27
2022-07-25T06:36:40.310Z,21.51
2022-07-25T06:39:49.835Z,21.73
2022-07-25T06:42:59.393Z,21.96
2022-07-25T06:46:10.591Z,22.22
2022-07-25T06:49:23.219Z,22.47
2022-07-25T06:52:32.732Z,22.72
2022-07-25T12:17:05.023Z,34.14
2022-07-25T12:20:20.093Z,34.31
2022-07-25T12:23:39.291Z,34.61
2022-07-25T12:26:49.098Z,34.63
2022-07-25T12:29:59.815Z,34.66
2022-07-25T12:33:12.806Z,34.92
2022-07-25T12:36:22.741Z,34.93
2022-07-25T12:39:33.407Z,35.13
2022-07-25T12:42:43.713Z,35.56
2022-07-25T12:45:53.533Z,35.67
2022-07-25T12:49:12.416Z,35.63
2022-07-25T12:52:23.841Z,35.40
2022-07-25T12:55:34.972Z,35.45
2022-07-25T12:58:51.990Z,35.43
2022-07-25T13:02:04.074Z,35.98
2022-07-25T13:05:15.128Z,36.19
2022-07-25T13:08:24.622Z,36.53
2022-07-25T13:11:34.246Z,36.19
2022-07-25T13:14:43.933Z,35.82
2022-07-25T13:17:56.233Z,35.49
2022-07-25T13:21:08.661Z,35.19
2022-07-25T13:24:27.325Z,34.80
2022-07-25T13:27:38.200Z,34.47
2022-07-25T13:30:47.809Z,34.23
2022-07-25T13:33:57.723Z,34.14
2022-07-25T13:37:09.182Z,33.88
2022-07-25T13:40:18.802Z,33.37
2022-07-25T13:43:28.231Z,32.97
2022-07-25T13:46:37.886Z,33.07
2022-07-25T13:49:50.177Z,33.18
2022-07-25T13:53:01.561Z,32.99
2022-07-25T13:56:12.268Z,33.64
2022-07-25T13:59:22.136Z,34.31
2022-07-25T14:02:31.875Z,34.13
2022-07-25T14:05:44.130Z,34.12
2022-07-25T14:08:54.960Z,34.08
2022-07-25T14:12:04.783Z,33.99
2022-07-25T14:15:17.453Z,33.72
2022-07-25T14:18:27.711Z,33.48
2022-07-25T14:21:37.834Z,33.31
2022-07-25T14:24:51.026Z,33.29
2022-07-25T14:28:01.023Z,33.26
2022-07-25T14:31:11.236Z,33.26
2022-07-25T14:34:20.799Z,33.32
2022-07-25T14:37:31.221Z,33.55
2022-07-25T14:40:41.939Z,33.57
2022-07-25T14:43:51.387Z,33.44
2022-07-25T14:47:00.887Z,33.69
2022-07-25T14:50:11.065Z,35.08
2022-07-25T14:53:22.978Z,36.32
2022-07-25T14:56:33.991Z,36.23
2022-07-25T14:59:43.426Z,36.49
2022-07-25T15:02:52.954Z,36.65
2022-07-25T15:06:03.097Z,36.68
2022-07-25T15:09:12.552Z,36.47
2022-07-25T15:12:23.196Z,36.33
2022-07-25T15:15:38.292Z,36.42
2022-07-25T15:19:14.638Z,36.16
2022-07-25T15:22:17.269Z,35.59
2022-07-25T15:29:00.880Z,33.48
2022-07-25T15:32:10.355Z,33.13
2022-07-25T15:35:19.921Z,32.88
2022-07-25T15:38:30.606Z,33.36
2022-07-25T15:41:42.149Z,33.74
2022-07-25T15:45:15.163Z,34.46
2022-07-25T15:48:27.419Z,34.88
2022-07-25T15:51:36.954Z,35.28
2022-07-25T15:54:46.475Z,34.71
2022-07-25T15:57:56.123Z,34.57
2022-07-25T16:01:07.025Z,34.10
2022-07-25T16:04:16.689Z,33.44
2022-07-25T16:07:28.729Z,32.47
2022-07-25T16:10:38.656Z,32.43
2022-07-25T16:13:48.284Z,32.23
2022-07-25T16:16:59.333Z,32.11
2022-07-25T16:20:10.159Z,31.84
2022-07-25T16:23:19.634Z,31.86
2022-07-25T16:26:32.041Z,31.92
2022-07-25T16:29:41.979Z,31.89
2022-07-25T16:32:55.401Z,31.77
2022-07-25T16:36:05.951Z,31.54
2022-07-25T16:39:15.599Z,31.50
2022-07-25T16:42:25.257Z,31.50
2022-07-25T16:45:42.927Z,31.31
2022-07-25T16:48:53.773Z,31.24
2022-07-25T16:52:03.648Z,30.94
2022-07-25T16:55:13.284Z,30.86
2022-07-25T16:58:22.828Z,30.82
2022-07-25T17:01:32.682Z,30.77
2022-07-25T17:04:51.148Z,30.80
2022-07-25T17:08:00.715Z,30.58
2022-07-25T17:11:15.428Z,30.45
2022-07-25T17:14:29.932Z,30.40
2022-07-25T17:17:40.137Z,30.47
2022-07-25T17:20:50.973Z,30.77
2022-07-25T17:24:00.891Z,30.97
2022-07-25T17:27:13.368Z,30.74
2022-07-25T17:30:23.073Z,30.77
2022-07-25T17:33:34.751Z,30.89
2022-07-25T17:36:48.018Z,30.91
2022-07-25T17:40:01.586Z,30.55
2022-07-25T17:43:11.345Z,30.20
2022-07-25T17:46:20.926Z,29.92
2022-07-25T17:49:33.313Z,29.62
2022-07-25T17:52:45.224Z,29.45
2022-07-25T17:55:56.885Z,29.26
2022-07-25T17:59:06.488Z,28.96
2022-07-25T18:02:16.331Z,28.85
2022-07-25T18:05:26.587Z,28.79
2022-07-25T18:08:37.719Z,28.64
2022-07-25T18:11:47.568Z,28.60
2022-07-25T18:15:04.602Z,28.52
2022-07-25T18:18:18.435Z,28.49
2022-07-25T18:21:30.116Z,28.37
2022-07-25T18:24:40.886Z,28.12
2022-07-25T18:27:50.599Z,27.92
2022-07-25T18:31:00.366Z,27.75
2022-07-25T18:34:10.253Z,27.52
2022-07-25T18:37:22.997Z,27.44
2022-07-25T18:40:33.803Z,27.15
2022-07-25T18:43:47.156Z,27.00
2022-07-25T18:46:57.655Z,26.87
2022-07-25T18:50:19.652Z,26.76
2022-07-25T18:53:29.228Z,26.70
2022-07-25T18:56:43.641Z,26.68
2022-07-25T18:59:53.212Z,26.50
2022-07-25T19:03:02.831Z,26.36
2022-07-25T19:06:16.175Z,26.38
2022-07-25T19:09:26.770Z,26.40
2022-07-25T19:12:38.498Z,26.39
2022-07-25T19:15:48.154Z,26.43
2022-07-25T19:18:57.925Z,26.33
2022-07-25T19:22:07.850Z,26.23
2022-07-25T19:25:17.420Z,26.16
2022-07-25T19:28:28.801Z,26.21
2022-07-25T19:31:43.737Z,26.20
2022-07-25T19:34:53.371Z,26.07
2022-07-25T19:38:05.795Z,25.87
2022-07-25T19:41:15.459Z,25.87
2022-07-25T19:44:26.327Z,25.74
2022-07-25T19:47:35.996Z,25.54
2022-07-25T19:50:48.175Z,25.40
2022-07-25T19:53:57.720Z,25.36
2022-07-25T19:57:07.413Z,25.34
2022-07-25T20:00:20.861Z,25.26
2022-07-25T20:03:30.414Z,25.28
2022-07-25T20:06:40.463Z,25.25
2022-07-25T20:10:03.823Z,25.08
2022-07-25T20:13:13.515Z,25.06
2022-07-25T20:16:26.686Z,25.02
2022-07-25T20:19:39.096Z,24.88
